sensor_id;sensor_type;location;lat;lon;timestamp;P1;durP1;ratioP1;P2;durP2;ratioP2
16346;SDS011;8283;48.504;13.734;2023-08-01T00:00:29;3.67;;;1.17;;
16346;SDS011;8283;48.504;13.734;2023-08-01T00:03:15;3.13;;;1.10;;
16346;SDS011;8283;48.504;13.734;2023-08-01T00:05:59;1.30;;;1.10;;
16346;SDS011;8283;48.504;13.734;2023-08-01T00:08:45;1.25;;;1.08;;
16346;SDS011;8283;48.504;13.734;2023-08-01T00:11:30;3.83;;;1.73;;
16346;SDS011;8283;48.504;13.734;2023-08-01T00:14:14;2.63;;;1.30;;
16346;SDS011;8283;48.504;13.734;2023-08-01T00:16:59;2.17;;;1.50;;
16346;SDS011;8283;48.504;13.734;2023-08-01T00:19:44;2.05;;;1.40;;
16346;SDS011;8283;48.504;13.734;2023-08-01T00:22:29;1.55;;;1.42;;
16346;SDS011;8283;48.504;13.734;2023-08-01T00:25:13;2.13;;;1.33;;
16346;SDS011;8283;48.504;13.734;2023-08-01T00:27:58;3.28;;;1.30;;
16346;SDS011;8283;48.504;13.734;2023-08-01T00:30:43;2.17;;;1.20;;
16346;SDS011;8283;48.504;13.734;2023-08-01T00:33:29;1.52;;;1.40;;
16346;SDS011;8283;48.504;13.734;2023-08-01T00:36:13;2.70;;;1.23;;
16346;SDS011;8283;48.504;13.734;2023-08-01T00:38:57;1.55;;;1.30;;
16346;SDS011;8283;48.504;13.734;2023-08-01T00:41:41;2.25;;;1.30;;
16346;SDS011;8283;48.504;13.734;2023-08-01T00:44:26;4.68;;;1.77;;
16346;SDS011;8283;48.504;13.734;2023-08-01T00:47:10;1.70;;;1.42;;
16346;SDS011;8283;48.504;13.734;2023-08-01T00:49:55;1.58;;;1.30;;
16346;SDS011;8283;48.504;13.734;2023-08-01T00:52:41;4.22;;;2.10;;
16346;SDS011;8283;48.504;13.734;2023-08-01T00:55:27;1.90;;;1.40;;
16346;SDS011;8283;48.504;13.734;2023-08-01T00:58:15;2.33;;;1.15;;
16346;SDS011;8283;48.504;13.734;2023-08-01T01:00:59;2.50;;;1.60;;
16346;SDS011;8283;48.504;13.734;2023-08-01T01:03:45;3.00;;;1.80;;
16346;SDS011;8283;48.504;13.734;2023-08-01T01:06:32;2.92;;;2.05;;
16346;SDS011;8283;48.504;13.734;2023-08-01T01:09:21;1.67;;;1.30;;
16346;SDS011;8283;48.504;13.734;2023-08-01T01:12:07;1.83;;;1.50;;
16346;SDS011;8283;48.504;13.734;2023-08-01T01:14:52;1.35;;;1.25;;
16346;SDS011;8283;48.504;13.734;2023-08-01T01:17:37;3.13;;;1.60;;
16346;SDS011;8283;48.504;13.734;2023-08-01T01:20:23;3.03;;;1.38;;
16346;SDS011;8283;48.504;13.734;2023-08-01T01:23:09;2.03;;;1.27;;
16346;SDS011;8283;48.504;13.734;2023-08-01T01:25:54;4.82;;;1.60;;
16346;SDS011;8283;48.504;13.734;2023-08-01T01:28:41;1.90;;;1.58;;
16346;SDS011;8283;48.504;13.734;2023-08-01T01:31:27;3.53;;;1.50;;
16346;SDS011;8283;48.504;13.734;2023-08-01T01:34:12;1.35;;;1.05;;
16346;SDS011;8283;48.504;13.734;2023-08-01T01:36:58;3.78;;;1.38;;
16346;SDS011;8283;48.504;13.734;2023-08-01T01:39:42;1.83;;;1.38;;
16346;SDS011;8283;48.504;13.734;2023-08-01T01:42:27;1.65;;;1.40;;
16346;SDS011;8283;48.504;13.734;2023-08-01T01:45:12;1.90;;;1.67;;
16346;SDS011;8283;48.504;13.734;2023-08-01T01:47:58;2.30;;;1.60;;
16346;SDS011;8283;48.504;13.734;2023-08-01T01:50:44;2.47;;;1.40;;
16346;SDS011;8283;48.504;13.734;2023-08-01T01:53:28;2.00;;;1.63;;
16346;SDS011;8283;48.504;13.734;2023-08-01T01:56:13;1.65;;;1.30;;
16346;SDS011;8283;48.504;13.734;2023-08-01T01:58:58;2.15;;;1.67;;
16346;SDS011;8283;48.504;13.734;2023-08-01T02:01:44;2.00;;;1.50;;
16346;SDS011;8283;48.504;13.734;2023-08-01T02:04:30;3.55;;;1.23;;
16346;SDS011;8283;48.504;13.734;2023-08-01T02:07:14;2.20;;;1.35;;
16346;SDS011;8283;48.504;13.734;2023-08-01T02:10:00;3.45;;;1.60;;
16346;SDS011;8283;48.504;13.734;2023-08-01T02:12:47;3.75;;;1.55;;
16346;SDS011;8283;48.504;13.734;2023-08-01T02:15:32;2.20;;;1.60;;
16346;SDS011;8283;48.504;13.734;2023-08-01T02:18:17;2.63;;;1.50;;
16346;SDS011;8283;48.504;13.734;2023-08-01T02:21:03;1.60;;;1.17;;
16346;SDS011;8283;48.504;13.734;2023-08-01T02:23:47;2.90;;;1.70;;
16346;SDS011;8283;48.504;13.734;2023-08-01T02:26:32;1.95;;;1.30;;
16346;SDS011;8283;48.504;13.734;2023-08-01T02:29:18;2.15;;;1.80;;
16346;SDS011;8283;48.504;13.734;2023-08-01T02:32:02;2.03;;;1.58;;
16346;SDS011;8283;48.504;13.734;2023-08-01T02:34:48;3.63;;;1.50;;
16346;SDS011;8283;48.504;13.734;2023-08-01T02:37:33;2.13;;;1.50;;
16346;SDS011;8283;48.504;13.734;2023-08-01T02:40:17;3.15;;;1.58;;
16346;SDS011;8283;48.504;13.734;2023-08-01T02:43:02;2.50;;;1.60;;
16346;SDS011;8283;48.504;13.734;2023-08-01T02:45:47;1.17;;;1.08;;
16346;SDS011;8283;48.504;13.734;2023-08-01T02:48:33;1.77;;;1.52;;
16346;SDS011;8283;48.504;13.734;2023-08-01T02:51:19;2.90;;;1.50;;
16346;SDS011;8283;48.504;13.734;2023-08-01T02:54:05;2.90;;;1.63;;
16346;SDS011;8283;48.504;13.734;2023-08-01T02:56:49;2.17;;;1.73;;
16346;SDS011;8283;48.504;13.734;2023-08-01T02:59:35;2.55;;;1.40;;
16346;SDS011;8283;48.504;13.734;2023-08-01T03:02:20;5.85;;;2.22;;
16346;SDS011;8283;48.504;13.734;2023-08-01T03:05:06;2.47;;;2.00;;
16346;SDS011;8283;48.504;13.734;2023-08-01T03:07:51;1.67;;;1.45;;
16346;SDS011;8283;48.504;13.734;2023-08-01T03:10:36;2.75;;;1.58;;
16346;SDS011;8283;48.504;13.734;2023-08-01T03:13:20;2.38;;;1.63;;
16346;SDS011;8283;48.504;13.734;2023-08-01T03:16:07;1.73;;;1.42;;
16346;SDS011;8283;48.504;13.734;2023-08-01T03:18:52;2.83;;;1.40;;
16346;SDS011;8283;48.504;13.734;2023-08-01T03:21:36;3.00;;;1.55;;
16346;SDS011;8283;48.504;13.734;2023-08-01T03:24:21;1.60;;;1.50;;
16346;SDS011;8283;48.504;13.734;2023-08-01T03:30:16;1.30;;;1.20;;
16346;SDS011;8283;48.504;13.734;2023-08-01T03:33:01;2.08;;;1.50;;
16346;SDS011;8283;48.504;13.734;2023-08-01T03:35:46;1.65;;;1.40;;
16346;SDS011;8283;48.504;13.734;2023-08-01T03:38:31;1.70;;;1.60;;
16346;SDS011;8283;48.504;13.734;2023-08-01T03:41:16;1.98;;;1.33;;
16346;SDS011;8283;48.504;13.734;2023-08-01T03:44:00;3.63;;;1.80;;
16346;SDS011;8283;48.504;13.734;2023-08-01T03:46:45;2.53;;;2.05;;
16346;SDS011;8283;48.504;13.734;2023-08-01T03:49:31;2.38;;;1.48;;
16346;SDS011;8283;48.504;13.734;2023-08-01T03:52:16;3.30;;;1.50;;
16346;SDS011;8283;48.504;13.734;2023-08-01T03:55:01;3.25;;;1.83;;
16346;SDS011;8283;48.504;13.734;2023-08-01T03:57:45;2.20;;;1.60;;
16346;SDS011;8283;48.504;13.734;2023-08-01T04:00:30;2.75;;;1.77;;
16346;SDS011;8283;48.504;13.734;2023-08-01T04:03:16;2.00;;;1.60;;
16346;SDS011;8283;48.504;13.734;2023-08-01T04:06:02;1.52;;;1.38;;
16346;SDS011;8283;48.504;13.734;2023-08-01T04:08:46;3.20;;;1.75;;
16346;SDS011;8283;48.504;13.734;2023-08-01T04:11:30;2.05;;;1.50;;
16346;SDS011;8283;48.504;13.734;2023-08-01T04:14:14;2.13;;;1.48;;
16346;SDS011;8283;48.504;13.734;2023-08-01T04:16:59;1.83;;;1.50;;
16346;SDS011;8283;48.504;13.734;2023-08-01T04:19:44;1.77;;;1.50;;
16346;SDS011;8283;48.504;13.734;2023-08-01T04:22:28;1.88;;;1.67;;
16346;SDS011;8283;48.504;13.734;2023-08-01T04:25:12;2.55;;;1.90;;
16346;SDS011;8283;48.504;13.734;2023-08-01T04:27:57;2.78;;;1.65;;
16346;SDS011;8283;48.504;13.734;2023-08-01T04:30:41;1.70;;;1.38;;
16346;SDS011;8283;48.504;13.734;2023-08-01T04:33:26;4.03;;;1.67;;
16346;SDS011;8283;48.504;13.734;2023-08-01T04:36:10;3.45;;;1.50;;
16346;SDS011;8283;48.504;13.734;2023-08-01T04:38:55;2.25;;;1.60;;
16346;SDS011;8283;48.504;13.734;2023-08-01T04:41:39;2.50;;;1.67;;
16346;SDS011;8283;48.504;13.734;2023-08-01T04:44:24;2.05;;;1.65;;
16346;SDS011;8283;48.504;13.734;2023-08-01T04:47:08;2.72;;;1.63;;
16346;SDS011;8283;48.504;13.734;2023-08-01T04:49:52;2.22;;;1.75;;
16346;SDS011;8283;48.504;13.734;2023-08-01T04:52:37;2.35;;;1.70;;
16346;SDS011;8283;48.504;13.734;2023-08-01T04:55:22;3.53;;;2.00;;
16346;SDS011;8283;48.504;13.734;2023-08-01T04:58:07;2.20;;;1.58;;
16346;SDS011;8283;48.504;13.734;2023-08-01T05:00:52;2.92;;;1.98;;
16346;SDS011;8283;48.504;13.734;2023-08-01T05:03:37;2.58;;;1.83;;
16346;SDS011;8283;48.504;13.734;2023-08-01T05:06:22;3.25;;;1.60;;
16346;SDS011;8283;48.504;13.734;2023-08-01T05:09:07;1.88;;;1.42;;
16346;SDS011;8283;48.504;13.734;2023-08-01T05:11:53;2.35;;;1.95;;
16346;SDS011;8283;48.504;13.734;2023-08-01T05:14:40;1.90;;;1.63;;
16346;SDS011;8283;48.504;13.734;2023-08-01T05:17:24;3.28;;;2.63;;
16346;SDS011;8283;48.504;13.734;2023-08-01T05:20:09;3.97;;;2.22;;
16346;SDS011;8283;48.504;13.734;2023-08-01T05:22:54;5.32;;;2.67;;
16346;SDS011;8283;48.504;13.734;2023-08-01T05:25:38;2.05;;;1.67;;
16346;SDS011;8283;48.504;13.734;2023-08-01T05:28:23;3.05;;;1.85;;
16346;SDS011;8283;48.504;13.734;2023-08-01T05:31:08;2.67;;;1.80;;
16346;SDS011;8283;48.504;13.734;2023-08-01T05:33:52;2.53;;;1.80;;
16346;SDS011;8283;48.504;13.734;2023-08-01T05:36:37;2.13;;;1.48;;
16346;SDS011;8283;48.504;13.734;2023-08-01T05:39:22;2.83;;;1.80;;
16346;SDS011;8283;48.504;13.734;2023-08-01T05:42:06;2.22;;;1.60;;
16346;SDS011;8283;48.504;13.734;2023-08-01T05:44:52;3.95;;;1.92;;
16346;SDS011;8283;48.504;13.734;2023-08-01T05:47:37;3.35;;;1.88;;
16346;SDS011;8283;48.504;13.734;2023-08-01T05:50:23;1.70;;;1.42;;
16346;SDS011;8283;48.504;13.734;2023-08-01T05:53:09;2.03;;;1.67;;
16346;SDS011;8283;48.504;13.734;2023-08-01T05:55:54;1.77;;;1.58;;
16346;SDS011;8283;48.504;13.734;2023-08-01T05:58:40;1.65;;;1.50;;
16346;SDS011;8283;48.504;13.734;2023-08-01T06:01:24;2.25;;;1.70;;
16346;SDS011;8283;48.504;13.734;2023-08-01T06:04:09;2.47;;;1.80;;
16346;SDS011;8283;48.504;13.734;2023-08-01T06:06:53;2.33;;;1.60;;
16346;SDS011;8283;48.504;13.734;2023-08-01T06:09:38;2.17;;;1.58;;
16346;SDS011;8283;48.504;13.734;2023-08-01T06:12:23;2.10;;;1.75;;
16346;SDS011;8283;48.504;13.734;2023-08-01T06:15:08;2.13;;;1.70;;
16346;SDS011;8283;48.504;13.734;2023-08-01T06:17:53;1.83;;;1.70;;
16346;SDS011;8283;48.504;13.734;2023-08-01T06:20:37;2.38;;;1.65;;
16346;SDS011;8283;48.504;13.734;2023-08-01T06:23:23;2.40;;;1.77;;
16346;SDS011;8283;48.504;13.734;2023-08-01T06:26:07;1.98;;;1.80;;
16346;SDS011;8283;48.504;13.734;2023-08-01T06:28:52;2.30;;;1.85;;
16346;SDS011;8283;48.504;13.734;2023-08-01T06:31:36;3.08;;;1.77;;
16346;SDS011;8283;48.504;13.734;2023-08-01T06:34:21;2.92;;;2.05;;
16346;SDS011;8283;48.504;13.734;2023-08-01T06:37:05;1.90;;;1.67;;
16346;SDS011;8283;48.504;13.734;2023-08-01T06:39:50;2.50;;;2.30;;
16346;SDS011;8283;48.504;13.734;2023-08-01T06:42:35;2.70;;;2.13;;
16346;SDS011;8283;48.504;13.734;2023-08-01T06:45:19;6.32;;;3.05;;
16346;SDS011;8283;48.504;13.734;2023-08-01T06:48:04;5.38;;;2.55;;
16346;SDS011;8283;48.504;13.734;2023-08-01T06:50:48;2.63;;;2.10;;
16346;SDS011;8283;48.504;13.734;2023-08-01T06:53:32;4.03;;;2.33;;
16346;SDS011;8283;48.504;13.734;2023-08-01T06:56:17;3.05;;;2.17;;
16346;SDS011;8283;48.504;13.734;2023-08-01T06:59:02;2.83;;;2.38;;
16346;SDS011;8283;48.504;13.734;2023-08-01T07:01:46;2.35;;;1.88;;
16346;SDS011;8283;48.504;13.734;2023-08-01T07:04:31;3.00;;;2.38;;
16346;SDS011;8283;48.504;13.734;2023-08-01T07:07:16;3.00;;;2.08;;
16346;SDS011;8283;48.504;13.734;2023-08-01T07:10:01;2.25;;;2.00;;
16346;SDS011;8283;48.504;13.734;2023-08-01T07:12:45;1.90;;;1.67;;
16346;SDS011;8283;48.504;13.734;2023-08-01T07:15:31;1.83;;;1.63;;
16346;SDS011;8283;48.504;13.734;2023-08-01T07:18:16;1.88;;;1.67;;
16346;SDS011;8283;48.504;13.734;2023-08-01T07:21:04;2.67;;;1.90;;
16346;SDS011;8283;48.504;13.734;2023-08-01T07:23:48;2.28;;;1.70;;
16346;SDS011;8283;48.504;13.734;2023-08-01T07:26:33;1.85;;;1.50;;
16346;SDS011;8283;48.504;13.734;2023-08-01T07:29:17;1.90;;;1.50;;
16346;SDS011;8283;48.504;13.734;2023-08-01T07:32:02;2.65;;;1.85;;
16346;SDS011;8283;48.504;13.734;2023-08-01T07:34:46;3.08;;;2.08;;
16346;SDS011;8283;48.504;13.734;2023-08-01T07:37:32;2.50;;;1.80;;
16346;SDS011;8283;48.504;13.734;2023-08-01T07:40:18;2.22;;;1.90;;
16346;SDS011;8283;48.504;13.734;2023-08-01T07:43:02;2.72;;;1.80;;
16346;SDS011;8283;48.504;13.734;2023-08-01T07:45:46;4.22;;;1.83;;
16346;SDS011;8283;48.504;13.734;2023-08-01T07:48:34;2.28;;;1.70;;
16346;SDS011;8283;48.504;13.734;2023-08-01T07:51:19;3.25;;;1.77;;
16346;SDS011;8283;48.504;13.734;2023-08-01T07:54:03;4.35;;;1.90;;
16346;SDS011;8283;48.504;13.734;2023-08-01T07:56:48;1.58;;;1.48;;
16346;SDS011;8283;48.504;13.734;2023-08-01T07:59:32;2.17;;;1.60;;
16346;SDS011;8283;48.504;13.734;2023-08-01T08:02:17;3.20;;;2.00;;
16346;SDS011;8283;48.504;13.734;2023-08-01T08:05:02;2.20;;;1.88;;
16346;SDS011;8283;48.504;13.734;2023-08-01T08:07:47;2.10;;;1.80;;
16346;SDS011;8283;48.504;13.734;2023-08-01T08:10:32;1.95;;;1.45;;
16346;SDS011;8283;48.504;13.734;2023-08-01T08:13:16;2.67;;;1.70;;
16346;SDS011;8283;48.504;13.734;2023-08-01T08:16:00;1.80;;;1.70;;
16346;SDS011;8283;48.504;13.734;2023-08-01T08:18:44;2.38;;;1.77;;
16346;SDS011;8283;48.504;13.734;2023-08-01T08:21:29;3.15;;;1.98;;
16346;SDS011;8283;48.504;13.734;2023-08-01T08:24:14;2.60;;;1.98;;
16346;SDS011;8283;48.504;13.734;2023-08-01T08:26:59;2.38;;;2.00;;
16346;SDS011;8283;48.504;13.734;2023-08-01T08:29:43;5.57;;;1.75;;
16346;SDS011;8283;48.504;13.734;2023-08-01T08:32:28;5.13;;;2.15;;
16346;SDS011;8283;48.504;13.734;2023-08-01T08:35:13;2.58;;;1.75;;
16346;SDS011;8283;48.504;13.734;2023-08-01T08:37:59;2.03;;;1.52;;
16346;SDS011;8283;48.504;13.734;2023-08-01T08:41:28;2.30;;;1.83;;
16346;SDS011;8283;48.504;13.734;2023-08-01T08:43:56;2.50;;;1.88;;
16346;SDS011;8283;48.504;13.734;2023-08-01T08:46:42;2.42;;;2.10;;
16346;SDS011;8283;48.504;13.734;2023-08-01T08:49:28;2.40;;;2.00;;
16346;SDS011;8283;48.504;13.734;2023-08-01T08:52:13;1.83;;;1.65;;
16346;SDS011;8283;48.504;13.734;2023-08-01T08:54:58;2.80;;;1.90;;
16346;SDS011;8283;48.504;13.734;2023-08-01T08:57:46;2.60;;;2.08;;
16346;SDS011;8283;48.504;13.734;2023-08-01T09:00:35;3.13;;;2.22;;
16346;SDS011;8283;48.504;13.734;2023-08-01T09:03:20;2.80;;;1.88;;
16346;SDS011;8283;48.504;13.734;2023-08-01T09:06:15;2.80;;;2.00;;
16346;SDS011;8283;48.504;13.734;2023-08-01T09:09:02;3.95;;;1.90;;
16346;SDS011;8283;48.504;13.734;2023-08-01T09:11:52;2.90;;;2.10;;
16346;SDS011;8283;48.504;13.734;2023-08-01T09:14:40;2.25;;;1.60;;
16346;SDS011;8283;48.504;13.734;2023-08-01T09:17:26;1.90;;;1.50;;
16346;SDS011;8283;48.504;13.734;2023-08-01T09:20:10;2.20;;;2.00;;
16346;SDS011;8283;48.504;13.734;2023-08-01T09:22:54;3.47;;;2.30;;
16346;SDS011;8283;48.504;13.734;2023-08-01T09:25:39;2.47;;;1.90;;
16346;SDS011;8283;48.504;13.734;2023-08-01T09:28:24;2.63;;;1.92;;
16346;SDS011;8283;48.504;13.734;2023-08-01T09:31:11;2.80;;;1.83;;
16346;SDS011;8283;48.504;13.734;2023-08-01T09:33:55;2.72;;;2.05;;
16346;SDS011;8283;48.504;13.734;2023-08-01T09:36:40;2.35;;;1.90;;
16346;SDS011;8283;48.504;13.734;2023-08-01T09:39:25;2.60;;;1.95;;
16346;SDS011;8283;48.504;13.734;2023-08-01T09:42:09;2.15;;;1.63;;
16346;SDS011;8283;48.504;13.734;2023-08-01T09:44:55;3.88;;;2.20;;
16346;SDS011;8283;48.504;13.734;2023-08-01T09:47:40;2.92;;;1.67;;
16346;SDS011;8283;48.504;13.734;2023-08-01T09:50:25;2.35;;;2.15;;
16346;SDS011;8283;48.504;13.734;2023-08-01T09:53:09;1.75;;;1.63;;
16346;SDS011;8283;48.504;13.734;2023-08-01T09:55:54;2.75;;;1.50;;
16346;SDS011;8283;48.504;13.734;2023-08-01T09:58:40;2.63;;;1.50;;
16346;SDS011;8283;48.504;13.734;2023-08-01T10:01:26;4.15;;;1.80;;
16346;SDS011;8283;48.504;13.734;2023-08-01T10:04:11;2.83;;;1.70;;
16346;SDS011;8283;48.504;13.734;2023-08-01T10:06:58;1.92;;;1.60;;
16346;SDS011;8283;48.504;13.734;2023-08-01T10:09:44;2.42;;;1.88;;
16346;SDS011;8283;48.504;13.734;2023-08-01T10:12:30;2.92;;;1.73;;
16346;SDS011;8283;48.504;13.734;2023-08-01T10:15:15;4.03;;;2.17;;
16346;SDS011;8283;48.504;13.734;2023-08-01T10:18:00;3.28;;;2.20;;
16346;SDS011;8283;48.504;13.734;2023-08-01T10:20:45;2.50;;;1.92;;
16346;SDS011;8283;48.504;13.734;2023-08-01T10:23:34;2.70;;;1.80;;
16346;SDS011;8283;48.504;13.734;2023-08-01T10:26:20;3.05;;;2.05;;
16346;SDS011;8283;48.504;13.734;2023-08-01T10:29:05;2.85;;;2.45;;
16346;SDS011;8283;48.504;13.734;2023-08-01T10:31:51;3.42;;;2.75;;
16346;SDS011;8283;48.504;13.734;2023-08-01T10:34:37;2.58;;;2.05;;
16346;SDS011;8283;48.504;13.734;2023-08-01T10:37:22;2.20;;;1.85;;
16346;SDS011;8283;48.504;13.734;2023-08-01T10:40:07;2.10;;;1.80;;
16346;SDS011;8283;48.504;13.734;2023-08-01T10:42:52;2.90;;;1.98;;
16346;SDS011;8283;48.504;13.734;2023-08-01T10:45:37;2.25;;;1.55;;
16346;SDS011;8283;48.504;13.734;2023-08-01T10:48:21;2.40;;;1.67;;
16346;SDS011;8283;48.504;13.734;2023-08-01T10:51:06;4.65;;;2.70;;
16346;SDS011;8283;48.504;13.734;2023-08-01T10:53:50;2.60;;;1.85;;
16346;SDS011;8283;48.504;13.734;2023-08-01T10:56:36;2.10;;;1.73;;
16346;SDS011;8283;48.504;13.734;2023-08-01T10:59:21;2.60;;;2.00;;
16346;SDS011;8283;48.504;13.734;2023-08-01T11:02:06;2.42;;;1.75;;
16346;SDS011;8283;48.504;13.734;2023-08-01T11:07:41;3.53;;;2.28;;
16346;SDS011;8283;48.504;13.734;2023-08-01T11:10:36;2.75;;;1.80;;
16346;SDS011;8283;48.504;13.734;2023-08-01T11:13:22;2.20;;;1.92;;
16346;SDS011;8283;48.504;13.734;2023-08-01T11:16:06;5.25;;;3.45;;
16346;SDS011;8283;48.504;13.734;2023-08-01T11:18:51;4.88;;;2.78;;
16346;SDS011;8283;48.504;13.734;2023-08-01T11:21:35;4.20;;;2.70;;
16346;SDS011;8283;48.504;13.734;2023-08-01T11:24:20;3.80;;;2.50;;
16346;SDS011;8283;48.504;13.734;2023-08-01T11:27:04;3.42;;;2.47;;
16346;SDS011;8283;48.504;13.734;2023-08-01T11:29:52;3.50;;;2.10;;
16346;SDS011;8283;48.504;13.734;2023-08-01T11:32:39;2.25;;;1.98;;
16346;SDS011;8283;48.504;13.734;2023-08-01T11:35:24;2.45;;;1.90;;
16346;SDS011;8283;48.504;13.734;2023-08-01T11:38:08;3.00;;;1.67;;
16346;SDS011;8283;48.504;13.734;2023-08-01T11:40:53;2.10;;;1.90;;
16346;SDS011;8283;48.504;13.734;2023-08-01T11:43:38;3.03;;;2.00;;
16346;SDS011;8283;48.504;13.734;2023-08-01T11:46:31;2.28;;;1.83;;
16346;SDS011;8283;48.504;13.734;2023-08-01T11:49:16;2.28;;;2.03;;
16346;SDS011;8283;48.504;13.734;2023-08-01T11:52:01;2.33;;;1.88;;
16346;SDS011;8283;48.504;13.734;2023-08-01T11:54:46;2.15;;;1.73;;
16346;SDS011;8283;48.504;13.734;2023-08-01T11:57:30;1.83;;;1.50;;
16346;SDS011;8283;48.504;13.734;2023-08-01T12:00:20;2.38;;;1.75;;
16346;SDS011;8283;48.504;13.734;2023-08-01T12:03:14;2.53;;;1.65;;
16346;SDS011;8283;48.504;13.734;2023-08-01T12:06:02;2.70;;;1.40;;
16346;SDS011;8283;48.504;13.734;2023-08-01T12:08:48;2.42;;;1.85;;
16346;SDS011;8283;48.504;13.734;2023-08-01T12:11:34;2.58;;;1.98;;
16346;SDS011;8283;48.504;13.734;2023-08-01T12:14:19;2.20;;;1.65;;
16346;SDS011;8283;48.504;13.734;2023-08-01T12:17:04;2.83;;;1.83;;
16346;SDS011;8283;48.504;13.734;2023-08-01T12:19:48;4.90;;;1.70;;
16346;SDS011;8283;48.504;13.734;2023-08-01T12:22:33;3.30;;;2.53;;
16346;SDS011;8283;48.504;13.734;2023-08-01T12:25:18;2.45;;;1.92;;
16346;SDS011;8283;48.504;13.734;2023-08-01T12:28:02;2.55;;;1.90;;
16346;SDS011;8283;48.504;13.734;2023-08-01T12:30:47;3.70;;;1.98;;
16346;SDS011;8283;48.504;13.734;2023-08-01T12:33:32;4.28;;;1.92;;
16346;SDS011;8283;48.504;13.734;2023-08-01T12:36:17;2.42;;;1.60;;
16346;SDS011;8283;48.504;13.734;2023-08-01T12:39:01;3.72;;;2.35;;
16346;SDS011;8283;48.504;13.734;2023-08-01T12:41:45;2.40;;;1.80;;
16346;SDS011;8283;48.504;13.734;2023-08-01T12:44:30;3.45;;;2.35;;
16346;SDS011;8283;48.504;13.734;2023-08-01T12:47:14;3.80;;;1.95;;
16346;SDS011;8283;48.504;13.734;2023-08-01T12:49:59;4.43;;;2.50;;
16346;SDS011;8283;48.504;13.734;2023-08-01T12:52:43;2.13;;;1.30;;
16346;SDS011;8283;48.504;13.734;2023-08-01T12:55:29;2.10;;;1.35;;
16346;SDS011;8283;48.504;13.734;2023-08-01T12:58:14;2.67;;;1.40;;
16346;SDS011;8283;48.504;13.734;2023-08-01T13:00:59;1.85;;;1.50;;
16346;SDS011;8283;48.504;13.734;2023-08-01T13:03:47;2.30;;;1.58;;
16346;SDS011;8283;48.504;13.734;2023-08-01T13:06:31;1.95;;;1.45;;
16346;SDS011;8283;48.504;13.734;2023-08-01T13:09:16;3.05;;;1.70;;
16346;SDS011;8283;48.504;13.734;2023-08-01T13:12:01;2.10;;;1.45;;
16346;SDS011;8283;48.504;13.734;2023-08-01T13:14:45;2.80;;;1.60;;
16346;SDS011;8283;48.504;13.734;2023-08-01T13:17:30;2.63;;;1.48;;
16346;SDS011;8283;48.504;13.734;2023-08-01T13:20:14;1.25;;;1.13;;
16346;SDS011;8283;48.504;13.734;2023-08-01T13:22:59;1.80;;;1.40;;
16346;SDS011;8283;48.504;13.734;2023-08-01T13:25:44;2.38;;;1.30;;
16346;SDS011;8283;48.504;13.734;2023-08-01T13:28:30;2.42;;;1.17;;
16346;SDS011;8283;48.504;13.734;2023-08-01T13:31:14;4.65;;;1.27;;
16346;SDS011;8283;48.504;13.734;2023-08-01T13:33:59;2.22;;;1.33;;
16346;SDS011;8283;48.504;13.734;2023-08-01T13:36:44;2.20;;;1.50;;
16346;SDS011;8283;48.504;13.734;2023-08-01T13:39:28;3.63;;;1.52;;
16346;SDS011;8283;48.504;13.734;2023-08-01T13:42:13;1.65;;;1.30;;
16346;SDS011;8283;48.504;13.734;2023-08-01T13:44:57;1.98;;;1.60;;
16346;SDS011;8283;48.504;13.734;2023-08-01T13:47:43;5.65;;;1.55;;
16346;SDS011;8283;48.504;13.734;2023-08-01T13:50:28;2.72;;;1.52;;
16346;SDS011;8283;48.504;13.734;2023-08-01T13:53:14;2.10;;;1.85;;
16346;SDS011;8283;48.504;13.734;2023-08-01T13:56:00;1.98;;;1.40;;
16346;SDS011;8283;48.504;13.734;2023-08-01T13:58:44;2.50;;;1.50;;
16346;SDS011;8283;48.504;13.734;2023-08-01T14:01:30;2.22;;;1.10;;
16346;SDS011;8283;48.504;13.734;2023-08-01T14:04:15;3.13;;;1.38;;
16346;SDS011;8283;48.504;13.734;2023-08-01T14:07:00;2.42;;;1.52;;
16346;SDS011;8283;48.504;13.734;2023-08-01T14:09:46;2.08;;;1.58;;
16346;SDS011;8283;48.504;13.734;2023-08-01T14:12:31;2.00;;;1.42;;
16346;SDS011;8283;48.504;13.734;2023-08-01T14:15:15;2.00;;;1.50;;
16346;SDS011;8283;48.504;13.734;2023-08-01T14:18:00;1.92;;;1.30;;
16346;SDS011;8283;48.504;13.734;2023-08-01T14:20:45;2.40;;;1.60;;
16346;SDS011;8283;48.504;13.734;2023-08-01T14:23:31;2.42;;;1.38;;
16346;SDS011;8283;48.504;13.734;2023-08-01T14:26:16;2.10;;;1.30;;
16346;SDS011;8283;48.504;13.734;2023-08-01T14:29:01;2.63;;;1.25;;
16346;SDS011;8283;48.504;13.734;2023-08-01T14:31:46;2.75;;;1.30;;
16346;SDS011;8283;48.504;13.734;2023-08-01T14:34:31;1.60;;;1.25;;
16346;SDS011;8283;48.504;13.734;2023-08-01T14:37:15;1.65;;;1.30;;
16346;SDS011;8283;48.504;13.734;2023-08-01T14:40:00;1.48;;;1.33;;
16346;SDS011;8283;48.504;13.734;2023-08-01T14:42:45;1.65;;;1.25;;
16346;SDS011;8283;48.504;13.734;2023-08-01T14:45:29;1.73;;;1.20;;
16346;SDS011;8283;48.504;13.734;2023-08-01T14:48:14;1.55;;;1.15;;
16346;SDS011;8283;48.504;13.734;2023-08-01T14:50:58;1.65;;;1.33;;
16346;SDS011;8283;48.504;13.734;2023-08-01T14:53:43;2.33;;;1.10;;
16346;SDS011;8283;48.504;13.734;2023-08-01T14:56:27;1.30;;;0.98;;
16346;SDS011;8283;48.504;13.734;2023-08-01T14:59:13;2.45;;;1.13;;
16346;SDS011;8283;48.504;13.734;2023-08-01T15:01:58;1.23;;;1.02;;
16346;SDS011;8283;48.504;13.734;2023-08-01T15:04:43;2.28;;;1.45;;
16346;SDS011;8283;48.504;13.734;2023-08-01T15:07:27;1.40;;;1.10;;
16346;SDS011;8283;48.504;13.734;2023-08-01T15:10:11;3.08;;;1.27;;
16346;SDS011;8283;48.504;13.734;2023-08-01T15:12:55;2.00;;;0.88;;
16346;SDS011;8283;48.504;13.734;2023-08-01T15:15:40;2.63;;;1.13;;
16346;SDS011;8283;48.504;13.734;2023-08-01T15:18:25;4.82;;;1.52;;
16346;SDS011;8283;48.504;13.734;2023-08-01T15:21:10;1.70;;;1.40;;
16346;SDS011;8283;48.504;13.734;2023-08-01T15:23:55;1.25;;;1.05;;
16346;SDS011;8283;48.504;13.734;2023-08-01T15:26:39;1.40;;;1.20;;
16346;SDS011;8283;48.504;13.734;2023-08-01T15:29:24;1.52;;;1.35;;
16346;SDS011;8283;48.504;13.734;2023-08-01T15:32:08;2.67;;;1.20;;
16346;SDS011;8283;48.504;13.734;2023-08-01T15:34:54;4.35;;;1.20;;
16346;SDS011;8283;48.504;13.734;2023-08-01T15:37:39;2.92;;;1.15;;
16346;SDS011;8283;48.504;13.734;2023-08-01T15:40:23;1.80;;;1.13;;
16346;SDS011;8283;48.504;13.734;2023-08-01T15:43:07;1.30;;;1.10;;
16346;SDS011;8283;48.504;13.734;2023-08-01T15:45:52;1.65;;;1.30;;
16346;SDS011;8283;48.504;13.734;2023-08-01T15:48:37;1.92;;;1.20;;
16346;SDS011;8283;48.504;13.734;2023-08-01T15:51:22;1.80;;;1.35;;
16346;SDS011;8283;48.504;13.734;2023-08-01T15:54:06;3.05;;;1.45;;
16346;SDS011;8283;48.504;13.734;2023-08-01T15:56:51;1.67;;;1.17;;
16346;SDS011;8283;48.504;13.734;2023-08-01T15:59:37;2.10;;;1.38;;
16346;SDS011;8283;48.504;13.734;2023-08-01T16:02:21;2.00;;;1.42;;
16346;SDS011;8283;48.504;13.734;2023-08-01T16:05:06;1.52;;;0.93;;
16346;SDS011;8283;48.504;13.734;2023-08-01T16:07:50;2.10;;;1.33;;
16346;SDS011;8283;48.504;13.734;2023-08-01T16:10:35;1.63;;;1.20;;
16346;SDS011;8283;48.504;13.734;2023-08-01T16:13:19;1.80;;;1.63;;
16346;SDS011;8283;48.504;13.734;2023-08-01T16:16:04;2.25;;;1.33;;
16346;SDS011;8283;48.504;13.734;2023-08-01T16:18:49;2.35;;;1.50;;
16346;SDS011;8283;48.504;13.734;2023-08-01T16:21:33;1.25;;;1.10;;
16346;SDS011;8283;48.504;13.734;2023-08-01T16:24:18;1.63;;;1.02;;
16346;SDS011;8283;48.504;13.734;2023-08-01T16:27:02;1.10;;;1.00;;
16346;SDS011;8283;48.504;13.734;2023-08-01T16:29:47;3.10;;;1.40;;
16346;SDS011;8283;48.504;13.734;2023-08-01T16:32:31;1.52;;;1.10;;
16346;SDS011;8283;48.504;13.734;2023-08-01T16:35:16;1.15;;;1.02;;
16346;SDS011;8283;48.504;13.734;2023-08-01T16:38:01;1.58;;;1.00;;
16346;SDS011;8283;48.504;13.734;2023-08-01T16:40:46;1.25;;;1.10;;